Time;durP1;ratioP1;P1;durP2;ratioP2;P2;SDS_P1;SDS_P2;PMS_P1;PMS_P2;Temp;Humidity;BMP_temperature;BMP_pressure;BME280_temperature;BME280_humidity;BME280_pressure;Samples;Min_cycle;Max_cycle;Signal;HPM_P1;HPM_P2
2022/04/07 00:01:30;;;;;;;10.13;4.53;;;;;;;;;;5051127;28;20037;-85
2022/04/07 00:04:16;;;;;;;9.18;4.38;;;;;;;;;;5050266;28;20048;-82
2022/04/07 00:07:01;;;;;;;10.18;4.93;;;;;;;;;;5045925;28;20040;-83
2022/04/07 00:09:47;;;;;;;16.23;4.85;;;;;;;;;;5045905;28;20048;-83
2022/04/07 00:12:33;;;;;;;9.25;4.15;;;;;;;;;;5055322;28;20481;-83
2022/04/07 00:15:19;;;;;;;8.82;4.15;;;;;;;;;;5046303;28;20041;-83
2022/04/07 00:18:06;;;;;;;9.43;4.28;;;;;;;;;;5045760;28;20477;-83
2022/04/07 00:20:53;;;;;;;8.73;3.92;;;;;;;;;;5060050;28;20052;-84
2022/04/07 00:23:39;;;;;;;12.82;4.55;;;;;;;;;;5045320;28;20041;-82
2022/04/07 00:26:25;;;;;;;11.75;4.53;;;;;;;;;;5039696;28;20041;-86
2022/04/07 00:29:11;;;;;;;13.00;5.13;;;;;;;;;;5046073;28;20389;-86
2022/04/07 00:31:57;;;;;;;11.70;6.03;;;;;;;;;;5045873;28;20482;-81
2022/04/07 00:34:46;;;;;;;11.85;4.65;;;;;;;;;;5060064;28;20485;-83
2022/04/07 00:37:31;;;;;;;9.95;4.38;;;;;;;;;;5038886;28;20041;-82
2022/04/07 00:40:17;;;;;;;10.05;4.90;;;;;;;;;;5039674;28;20053;-82
2022/04/07 00:43:04;;;;;;;10.13;4.50;;;;;;;;;;5038778;28;20053;-82
2022/04/07 00:45:49;;;;;;;12.60;5.18;;;;;;;;;;5059802;28;20048;-83
2022/04/07 00:48:35;;;;;;;16.55;5.80;;;;;;;;;;5045937;28;20053;-83
2022/04/07 00:51:20;;;;;;;16.50;6.05;;;;;;;;;;5045690;28;20394;-83
2022/04/07 00:54:08;;;;;;;17.45;6.43;;;;;;;;;;5046232;28;20041;-83
2022/04/07 00:56:55;;;;;;;10.75;4.45;;;;;;;;;;5039975;28;20044;-82
2022/04/07 00:59:40;;;;;;;10.77;4.45;;;;;;;;;;5057722;28;20040;-82
2022/04/07 01:02:26;;;;;;;14.32;4.30;;;;;;;;;;5064459;28;20048;-82
2022/04/07 01:05:11;;;;;;;11.93;5.60;;;;;;;;;;5063489;28;20481;-82
2022/04/07 01:07:57;;;;;;;11.93;4.40;;;;;;;;;;5056912;28;20045;-82
2022/04/07 01:10:45;;;;;;;12.60;4.70;;;;;;;;;;5049217;28;20041;-86
2022/04/07 01:13:50;;;;;;;11.27;4.80;;;;;;;;;;5049661;28;20045;-86
2022/04/07 01:16:36;;;;;;;;;;;;;;;;;;5050722;28;20052;-87
2022/04/07 01:19:21;;;;;;;7.07;3.72;;;;;;;;;;5073624;28;19917;-82
2022/04/07 01:22:07;;;;;;;13.52;4.30;;;;;;;;;;5035522;28;20045;-83
2022/04/07 01:24:53;;;;;;;8.93;4.30;;;;;;;;;;5049514;28;20052;-83
2022/04/07 01:27:38;;;;;;;10.38;3.85;;;;;;;;;;5049371;28;20032;-83
2022/04/07 01:30:23;;;;;;;11.07;4.00;;;;;;;;;;5049558;28;20049;-83
2022/04/07 01:33:12;;;;;;;12.20;4.60;;;;;;;;;;5049052;28;20053;-82
2022/04/07 01:35:58;;;;;;;10.25;3.80;;;;;;;;;;5057700;28;20052;-85
2022/04/07 01:38:45;;;;;;;9.55;3.90;;;;;;;;;;5049065;28;20041;-85
2022/04/07 01:41:31;;;;;;;9.23;4.15;;;;;;;;;;5057144;28;20041;-84
2022/04/07 01:44:18;;;;;;;10.68;4.40;;;;;;;;;;5042528;28;20040;-85
2022/04/07 01:47:04;;;;;;;12.18;4.60;;;;;;;;;;5048803;28;20502;-83
2022/04/07 01:50:05;;;;;;;11.32;4.78;;;;;;;;;;5048714;28;20040;-85
2022/04/07 01:52:50;;;;;;;12.77;4.38;;;;;;;;;;5049102;28;20044;-83
2022/04/07 01:55:36;;;;;;;14.98;5.35;;;;;;;;;;5048896;28;20049;-85
2022/04/07 01:58:22;;;;;;;17.38;6.75;;;;;;;;;;5063352;28;20044;-82
2022/04/07 02:01:07;;;;;;;16.45;6.28;;;;;;;;;;5035122;28;20074;-83
2022/04/07 02:03:52;;;;;;;14.20;6.00;;;;;;;;;;5042444;28;20052;-82
2022/04/07 02:06:38;;;;;;;17.55;7.00;;;;;;;;;;5050529;28;20045;-82
2022/04/07 02:09:24;;;;;;;13.15;6.85;;;;;;;;;;5058166;28;20041;-83
2022/04/07 02:12:09;;;;;;;21.15;7.97;;;;;;;;;;5041880;28;20044;-83
2022/04/07 02:14:59;;;;;;;18.70;7.60;;;;;;;;;;5048718;28;20041;-83
2022/04/07 02:17:44;;;;;;;16.98;7.60;;;;;;;;;;5048767;28;20037;-84
2022/04/07 02:20:30;;;;;;;18.33;7.15;;;;;;;;;;5041945;28;20049;-85
2022/04/07 02:23:15;;;;;;;18.13;6.72;;;;;;;;;;5061362;28;20049;-81
2022/04/07 02:26:01;;;;;;;18.48;7.60;;;;;;;;;;5056122;28;20048;-83
2022/04/07 02:28:47;;;;;;;20.67;7.88;;;;;;;;;;5048854;28;20049;-82
2022/04/07 02:31:32;;;;;;;22.55;7.47;;;;;;;;;;5048227;28;20052;-83
2022/04/07 02:34:18;;;;;;;22.17;7.60;;;;;;;;;;5048136;28;20041;-82
2022/04/07 02:37:04;;;;;;;16.27;7.35;;;;;;;;;;5041641;28;20045;-84
2022/04/07 02:39:49;;;;;;;16.70;7.15;;;;;;;;;;5062101;28;20045;-85
2022/04/07 02:42:35;;;;;;;16.90;7.05;;;;;;;;;;5047466;28;20052;-84
2022/04/07 02:45:20;;;;;;;15.88;7.00;;;;;;;;;;5047681;28;20049;-82
2022/04/07 02:48:06;;;;;;;16.33;6.70;;;;;;;;;;5048521;28;20045;-81
2022/04/07 02:50:51;;;;;;;12.80;7.15;;;;;;;;;;5047278;28;20398;-84
2022/04/07 02:53:37;;;;;;;14.75;7.53;;;;;;;;;;5047789;28;20048;-84
2022/04/07 02:56:27;;;;;;;15.90;6.72;;;;;;;;;;5062129;28;20049;-83
2022/04/07 02:59:12;;;;;;;15.15;7.07;;;;;;;;;;5056066;28;20044;-84
2022/04/07 03:01:58;;;;;;;15.52;7.30;;;;;;;;;;5062043;28;20045;-83
2022/04/07 03:04:44;;;;;;;15.13;6.63;;;;;;;;;;5054963;28;20041;-87
2022/04/07 03:07:29;;;;;;;23.50;6.97;;;;;;;;;;5056083;28;20408;-84
2022/04/07 03:10:15;;;;;;;19.15;6.47;;;;;;;;;;5048235;28;20053;-84
2022/04/07 03:13:00;;;;;;;12.48;5.60;;;;;;;;;;5048308;28;20489;-82
2022/04/07 03:15:46;;;;;;;20.42;6.88;;;;;;;;;;5062945;28;20048;-83
2022/04/07 03:18:32;;;;;;;17.58;6.70;;;;;;;;;;5045397;28;20049;-81
2022/04/07 03:21:18;;;;;;;15.75;6.43;;;;;;;;;;5054712;28;20049;-82
2022/04/07 03:24:04;;;;;;;19.15;8.35;;;;;;;;;;5055164;28;20045;-83
2022/04/07 03:26:51;;;;;;;18.75;8.85;;;;;;;;;;5047204;28;20045;-83
2022/04/07 03:29:36;;;;;;;17.98;8.73;;;;;;;;;;5046930;28;20045;-83
2022/04/07 03:32:22;;;;;;;21.52;9.20;;;;;;;;;;5055164;28;20053;-83
2022/04/07 03:35:08;;;;;;;22.52;9.73;;;;;;;;;;5047077;28;20044;-83
2022/04/07 03:37:53;;;;;;;20.65;9.70;;;;;;;;;;5046901;28;20045;-85
2022/04/07 03:40:39;;;;;;;20.80;9.20;;;;;;;;;;5046320;28;20040;-83
2022/04/07 03:43:25;;;;;;;43.22;16.27;;;;;;;;;;5040040;28;20048;-84
2022/04/07 03:46:11;;;;;;;167.57;46.67;;;;;;;;;;5046201;28;20417;-83
2022/04/07 03:48:56;;;;;;;173.82;47.00;;;;;;;;;;5032755;28;20051;-84
2022/04/07 03:51:42;;;;;;;68.53;22.90;;;;;;;;;;5032623;28;20393;-83
2022/04/07 03:54:27;;;;;;;41.33;16.80;;;;;;;;;;5046102;28;20044;-82
2022/04/07 03:57:13;;;;;;;56.53;21.42;;;;;;;;;;5046052;28;20037;-83
2022/04/07 03:59:58;;;;;;;42.97;16.25;;;;;;;;;;5045837;28;20041;-81
2022/04/07 04:02:43;;;;;;;32.13;14.00;;;;;;;;;;5032207;28;20045;-83
2022/04/07 04:05:28;;;;;;;33.83;15.45;;;;;;;;;;5045831;28;20049;-83
2022/04/07 04:08:14;;;;;;;43.30;16.13;;;;;;;;;;5032215;28;20474;-82
2022/04/07 04:11:00;;;;;;;38.92;15.20;;;;;;;;;;5039250;28;20037;-84
2022/04/07 04:13:46;;;;;;;37.55;13.05;;;;;;;;;;5055865;28;20037;-82
2022/04/07 04:16:31;;;;;;;29.27;12.07;;;;;;;;;;5065960;28;20044;-82
2022/04/07 04:19:16;;;;;;;25.90;11.50;;;;;;;;;;5046780;28;20048;-82
2022/04/07 04:22:02;;;;;;;22.70;11.32;;;;;;;;;;5072908;28;20048;-82
2022/04/07 04:24:48;;;;;;;24.02;10.27;;;;;;;;;;5065540;28;20048;-85
2022/04/07 04:27:34;;;;;;;24.50;11.50;;;;;;;;;;5072770;28;20044;-82
2022/04/07 04:30:19;;;;;;;24.40;9.60;;;;;;;;;;5065821;28;20036;-82
2022/04/07 04:33:05;;;;;;;24.38;10.02;;;;;;;;;;5078047;28;20048;-83
2022/04/07 04:35:52;;;;;;;24.02;8.80;;;;;;;;;;5077636;28;20052;-83
2022/04/07 04:38:37;;;;;;;28.55;9.93;;;;;;;;;;5069462;28;20396;-83
2022/04/07 04:41:23;;;;;;;18.27;8.32;;;;;;;;;;5069270;28;20045;-84
2022/04/07 04:44:07;;;;;;;22.25;7.65;;;;;;;;;;5073172;28;20048;-82
2022/04/07 04:46:53;;;;;;;15.30;4.88;;;;;;;;;;5062691;28;20052;-83
2022/04/07 04:49:42;;;;;;;26.73;8.05;;;;;;;;;;5040294;28;20045;-83
2022/04/07 04:52:27;;;;;;;33.50;7.30;;;;;;;;;;5059296;28;20037;-83
2022/04/07 04:55:13;;;;;;;26.10;9.07;;;;;;;;;;5079492;28;20037;-83
2022/04/07 04:57:58;;;;;;;21.65;6.63;;;;;;;;;;5085347;28;20049;-84
2022/04/07 05:00:44;;;;;;;17.08;7.07;;;;;;;;;;5069679;28;20045;-81
2022/04/07 05:03:29;;;;;;;27.10;6.50;;;;;;;;;;5081549;28;20044;-81
2022/04/07 05:06:14;;;;;;;27.25;9.82;;;;;;;;;;5073657;28;20049;-83
2022/04/07 05:09:00;;;;;;;23.60;7.03;;;;;;;;;;5082564;28;20480;-84
2022/04/07 05:11:45;;;;;;;33.17;10.43;;;;;;;;;;5061810;28;20036;-84
2022/04/07 05:14:30;;;;;;;36.38;16.08;;;;;;;;;;5077335;28;20412;-84
2022/04/07 05:17:18;;;;;;;26.35;8.85;;;;;;;;;;5053256;28;20036;-84
2022/04/07 05:20:04;;;;;;;21.48;5.63;;;;;;;;;;5078519;28;20048;-84
2022/04/07 05:22:49;;;;;;;20.70;6.05;;;;;;;;;;5077459;28;20040;-82
2022/04/07 05:25:34;;;;;;;30.13;8.32;;;;;;;;;;5083957;28;20040;-84
2022/04/07 05:28:21;;;;;;;28.80;11.27;;;;;;;;;;5077514;28;20044;-83
2022/04/07 05:31:06;;;;;;;31.40;10.40;;;;;;;;;;5076852;28;20048;-83
2022/04/07 05:33:52;;;;;;;24.20;6.35;;;;;;;;;;5069620;28;20049;-83
2022/04/07 05:36:37;;;;;;;24.38;6.60;;;;;;;;;;5069996;28;20056;-82
2022/04/07 05:39:23;;;;;;;25.55;6.93;;;;;;;;;;5077501;28;20040;-83
2022/04/07 05:42:08;;;;;;;21.67;7.13;;;;;;;;;;5083555;28;20040;-83
2022/04/07 05:44:53;;;;;;;27.15;7.63;;;;;;;;;;5076952;28;20477;-82
2022/04/07 05:47:40;;;;;;;27.70;6.68;;;;;;;;;;5076716;28;20401;-84
2022/04/07 05:50:26;;;;;;;22.55;5.95;;;;;;;;;;5076871;28;20048;-84
2022/04/07 05:53:11;;;;;;;26.45;6.72;;;;;;;;;;5068031;28;20473;-84
2022/04/07 05:55:58;;;;;;;21.80;7.13;;;;;;;;;;5083458;28;20396;-83
2022/04/07 05:58:43;;;;;;;31.13;10.52;;;;;;;;;;5083637;28;20048;-81
2022/04/07 06:01:30;;;;;;;44.17;13.98;;;;;;;;;;5077239;28;20036;-82
2022/04/07 06:04:16;;;;;;;56.97;22.45;;;;;;;;;;5083763;28;20052;-82
2022/04/07 06:07:01;;;;;;;24.55;5.72;;;;;;;;;;5082995;28;20040;-82
2022/04/07 06:09:47;;;;;;;29.33;8.25;;;;;;;;;;5083265;28;20056;-82
2022/04/07 06:12:33;;;;;;;29.25;7.38;;;;;;;;;;5083507;28;20393;-83
2022/04/07 06:15:18;;;;;;;24.88;5.38;;;;;;;;;;5081972;28;20052;-82
2022/04/07 06:18:05;;;;;;;21.83;5.78;;;;;;;;;;5077922;28;20044;-84
2022/04/07 06:20:51;;;;;;;17.92;5.18;;;;;;;;;;5083057;28;20044;-82
2022/04/07 06:23:36;;;;;;;30.45;6.82;;;;;;;;;;5082572;28;20048;-82
2022/04/07 06:26:23;;;;;;;24.85;6.63;;;;;;;;;;5082915;28;20044;-83
2022/04/07 06:29:09;;;;;;;27.02;9.93;;;;;;;;;;5083137;28;20048;-83
2022/04/07 06:31:54;;;;;;;42.55;12.93;;;;;;;;;;5076407;28;20033;-83
2022/04/07 06:34:40;;;;;;;37.45;13.90;;;;;;;;;;5067533;28;20396;-82
2022/04/07 06:37:25;;;;;;;27.45;11.07;;;;;;;;;;5066942;28;20412;-82
2022/04/07 06:40:11;;;;;;;32.20;8.82;;;;;;;;;;5075588;28;20037;-84
2022/04/07 06:42:59;;;;;;;29.10;9.93;;;;;;;;;;5082151;28;20045;-82
2022/04/07 06:45:44;;;;;;;37.50;15.18;;;;;;;;;;5082138;28;20048;-83
2022/04/07 06:48:30;;;;;;;89.13;36.92;;;;;;;;;;5082209;28;20495;-83
2022/04/07 06:51:16;;;;;;;22.60;6.75;;;;;;;;;;5075271;28;20044;-83
2022/04/07 06:54:01;;;;;;;28.85;8.60;;;;;;;;;;5075613;28;20056;-84
2022/04/07 06:56:47;;;;;;;29.05;9.32;;;;;;;;;;5075994;28;20101;-84
2022/04/07 06:59:32;;;;;;;26.10;8.65;;;;;;;;;;5083058;28;20041;-81
2022/04/07 07:02:18;;;;;;;32.42;10.45;;;;;;;;;;5080338;28;20044;-82
2022/04/07 07:05:04;;;;;;;37.97;11.85;;;;;;;;;;5073795;28;20642;-82
2022/04/07 07:07:49;;;;;;;33.83;8.65;;;;;;;;;;5075377;28;20048;-84
2022/04/07 07:10:35;;;;;;;25.05;7.97;;;;;;;;;;5082112;28;20045;-81
2022/04/07 07:13:22;;;;;;;24.88;10.55;;;;;;;;;;5082043;28;20056;-83
2022/04/07 07:16:08;;;;;;;30.38;11.68;;;;;;;;;;5081904;28;20377;-84
2022/04/07 07:18:53;;;;;;;39.38;14.70;;;;;;;;;;5073191;28;20060;-83
2022/04/07 07:21:39;;;;;;;43.30;16.92;;;;;;;;;;5081424;28;20044;-81
2022/04/07 07:24:26;;;;;;;34.42;13.05;;;;;;;;;;5081425;28;20040;-83
2022/04/07 07:27:15;;;;;;;39.67;11.45;;;;;;;;;;5066664;28;20045;-82
2022/04/07 07:30:01;;;;;;;25.02;9.32;;;;;;;;;;5075330;28;20048;-84
2022/04/07 07:32:47;;;;;;;28.98;8.77;;;;;;;;;;5066910;28;20040;-84
2022/04/07 07:35:34;;;;;;;25.17;7.40;;;;;;;;;;5060309;28;20052;-81
2022/04/07 07:38:21;;;;;;;32.67;7.07;;;;;;;;;;5083077;28;20036;-83
2022/04/07 07:41:07;;;;;;;22.55;7.03;;;;;;;;;;5076275;28;20048;-83
2022/04/07 07:43:52;;;;;;;27.85;8.02;;;;;;;;;;5074864;28;20036;-82
2022/04/07 07:46:38;;;;;;;25.30;7.40;;;;;;;;;;5074292;28;20143;-82
2022/04/07 07:49:23;;;;;;;24.52;6.55;;;;;;;;;;5074659;28;20044;-83
2022/04/07 07:52:09;;;;;;;26.77;7.90;;;;;;;;;;5074136;28;20481;-83
2022/04/07 07:54:55;;;;;;;25.23;8.32;;;;;;;;;;5080515;28;20477;-82
2022/04/07 07:57:41;;;;;;;29.60;9.27;;;;;;;;;;5081186;28;20045;-83
2022/04/07 08:00:26;;;;;;;27.42;8.30;;;;;;;;;;5080873;28;20044;-81
2022/04/07 08:03:12;;;;;;;26.42;7.30;;;;;;;;;;5080637;28;20044;-80
2022/04/07 08:05:57;;;;;;;28.60;10.73;;;;;;;;;;5080642;28;20049;-82
2022/04/07 08:08:42;;;;;;;28.50;7.63;;;;;;;;;;5065392;28;20052;-81
2022/04/07 08:11:27;;;;;;;28.42;7.50;;;;;;;;;;5080581;28;20480;-80
2022/04/07 08:14:13;;;;;;;21.13;6.50;;;;;;;;;;5080645;28;20044;-80
2022/04/07 08:16:59;;;;;;;31.63;6.10;;;;;;;;;;5080401;28;20040;-82
2022/04/07 08:19:46;;;;;;;29.77;6.47;;;;;;;;;;5073336;28;20048;-81
2022/04/07 08:22:32;;;;;;;19.33;5.43;;;;;;;;;;5080291;28;20057;-81
2022/04/07 08:25:17;;;;;;;20.58;7.30;;;;;;;;;;5080645;28;20049;-85
2022/04/07 08:28:03;;;;;;;23.05;6.03;;;;;;;;;;5074346;28;20049;-82
2022/04/07 08:30:48;;;;;;;21.02;7.13;;;;;;;;;;5065905;28;20041;-82
2022/04/07 08:33:34;;;;;;;27.23;5.20;;;;;;;;;;5073447;28;20041;-81
2022/04/07 08:36:20;;;;;;;17.05;4.20;;;;;;;;;;5073479;28;20044;-82
2022/04/07 08:39:05;;;;;;;16.50;4.25;;;;;;;;;;5073792;28;20036;-82
2022/04/07 08:41:53;;;;;;;20.75;6.45;;;;;;;;;;5080847;28;20049;-83
2022/04/07 08:44:39;;;;;;;20.58;3.53;;;;;;;;;;5073354;28;20049;-82
2022/04/07 08:47:24;;;;;;;12.50;4.00;;;;;;;;;;5080273;28;20048;-82
2022/04/07 08:50:13;;;;;;;14.90;4.78;;;;;;;;;;5073030;28;20048;-83
2022/04/07 08:52:58;;;;;;;10.88;3.30;;;;;;;;;;5073365;28;20473;-82
2022/04/07 08:55:44;;;;;;;14.98;5.05;;;;;;;;;;5073427;28;20048;-83
2022/04/07 08:58:30;;;;;;;15.68;4.88;;;;;;;;;;5072900;28;20042;-86
2022/04/07 09:01:15;;;;;;;22.38;4.97;;;;;;;;;;5073913;28;20053;-83
2022/04/07 09:04:00;;;;;;;19.30;4.93;;;;;;;;;;5079988;28;20040;-81
2022/04/07 09:06:46;;;;;;;13.32;3.58;;;;;;;;;;5080099;28;20504;-81
2022/04/07 09:09:33;;;;;;;13.32;3.67;;;;;;;;;;5080219;28;20052;-83
2022/04/07 09:12:24;;;;;;;16.73;4.57;;;;;;;;;;5080278;28;20048;-83
2022/04/07 09:15:09;;;;;;;14.82;4.00;;;;;;;;;;5080343;28;20400;-84
2022/04/07 09:17:55;;;;;;;13.02;4.05;;;;;;;;;;5073554;28;20036;-82
2022/04/07 09:20:44;;;;;;;21.70;3.58;;;;;;;;;;5078612;28;20045;-82
2022/04/07 09:23:38;;;;;;;34.65;7.35;;;;;;;;;;5087566;28;20404;-83
2022/04/07 09:26:23;;;;;;;15.95;4.18;;;;;;;;;;5084769;28;20040;-82
2022/04/07 09:29:16;;;;;;;12.50;3.60;;;;;;;;;;5084585;28;20435;-81
2022/04/07 09:32:02;;;;;;;15.57;3.20;;;;;;;;;;5084615;28;20489;-84
2022/04/07 09:34:58;;;;;;;11.00;4.68;;;;;;;;;;5076892;28;20056;-83
2022/04/07 09:37:43;;;;;;;13.65;5.22;;;;;;;;;;5069166;28;20052;-80
2022/04/07 09:40:28;;;;;;;19.17;4.43;;;;;;;;;;5076862;28;20045;-82
2022/04/07 09:43:13;;;;;;;17.02;4.70;;;;;;;;;;5083832;28;20044;-81
2022/04/07 09:46:08;;;;;;;11.88;3.00;;;;;;;;;;5076537;28;20045;-82
2022/04/07 09:49:07;;;;;;;13.32;3.88;;;;;;;;;;5077927;28;20044;-83
2022/04/07 09:51:52;;;;;;;19.67;4.20;;;;;;;;;;5085625;28;20037;-84
2022/04/07 09:54:41;;;;;;;14.07;3.83;;;;;;;;;;5084684;28;20056;-82
2022/04/07 09:57:28;;;;;;;16.60;2.80;;;;;;;;;;5077428;28;20037;-85
2022/04/07 10:00:14;;;;;;;12.50;3.42;;;;;;;;;;5077457;28;20044;-81
2022/04/07 10:03:05;;;;;;;19.20;3.20;;;;;;;;;;5069691;28;20468;-83
2022/04/07 10:05:51;;;;;;;12.52;3.80;;;;;;;;;;5077954;28;20049;-81
2022/04/07 10:08:39;;;;;;;11.38;2.88;;;;;;;;;;5077818;28;20049;-83
2022/04/07 10:11:24;;;;;;;16.52;2.97;;;;;;;;;;5077403;28;20044;-80
2022/04/07 10:14:14;;;;;;;7.72;2.80;;;;;;;;;;5083293;28;20052;-84
2022/04/07 10:17:00;;;;;;;15.50;5.40;;;;;;;;;;5048771;28;20048;-82
2022/04/07 10:19:53;;;;;;;19.20;3.53;;;;;;;;;;5075630;28;20041;-83
2022/04/07 10:23:03;;;;;;;15.07;3.28;;;;;;;;;;5075990;28;20412;-84
2022/04/07 10:25:49;;;;;;;11.50;4.22;;;;;;;;;;5076182;28;20040;-85
2022/04/07 10:28:35;;;;;;;9.35;3.45;;;;;;;;;;5083171;28;20040;-83
2022/04/07 10:31:22;;;;;;;9.00;3.25;;;;;;;;;;5084006;28;20045;-82
2022/04/07 10:34:07;;;;;;;11.40;3.15;;;;;;;;;;5076717;28;20048;-83
2022/04/07 10:37:02;;;;;;;11.95;3.10;;;;;;;;;;5082694;28;20040;-82
2022/04/07 10:39:50;;;;;;;10.95;3.25;;;;;;;;;;5083539;28;20040;-83
2022/04/07 10:43:03;;;;;;;12.10;3.03;;;;;;;;;;5083131;28;20040;-82
2022/04/07 10:45:50;;;;;;;6.65;2.50;;;;;;;;;;5085585;28;20048;-83
2022/04/07 10:48:39;;;;;;;9.63;2.70;;;;;;;;;;5089175;28;20057;-82
2022/04/07 10:51:39;;;;;;;14.25;3.47;;;;;;;;;;5082733;28;20044;-83
2022/04/07 10:54:29;;;;;;;8.88;2.80;;;;;;;;;;5089358;28;20048;-83
2022/04/07 10:57:17;;;;;;;16.25;2.67;;;;;;;;;;5089207;28;20048;-83
2022/04/07 11:00:04;;;;;;;12.90;3.03;;;;;;;;;;5082810;28;20049;-83
2022/04/07 11:03:15;;;;;;;14.55;4.38;;;;;;;;;;5088403;28;20049;-81
2022/04/07 11:06:06;;;;;;;13.80;3.38;;;;;;;;;;5083891;28;20396;-85
2022/04/07 11:09:11;;;;;;;14.48;2.97;;;;;;;;;;5082059;28;20048;-83
2022/04/07 11:12:08;;;;;;;11.38;4.63;;;;;;;;;;5075025;28;20036;-83
2022/04/07 11:15:15;;;;;;;10.23;3.38;;;;;;;;;;5075159;28;20087;-84
2022/04/07 11:18:39;;;;;;;15.82;3.33;;;;;;;;;;5081577;28;20049;-82
2022/04/07 11:21:25;;;;;;;15.05;3.90;;;;;;;;;;5081929;28;20044;-83
2022/04/07 11:24:20;;;;;;;15.80;4.43;;;;;;;;;;5075250;28;20057;-82
2022/04/07 11:27:35;;;;;;;23.10;4.28;;;;;;;;;;5082161;28;20052;-86
2022/04/07 11:30:20;;;;;;;10.07;3.50;;;;;;;;;;5081740;28;20040;-82
2022/04/07 11:33:20;;;;;;;16.70;5.57;;;;;;;;;;5082153;28;20040;-84
2022/04/07 11:36:33;;;;;;;16.90;4.18;;;;;;;;;;5083060;28;20048;-83
2022/04/07 11:39:19;;;;;;;17.77;5.82;;;;;;;;;;5065866;28;20053;-83
2022/04/07 11:42:04;;;;;;;18.30;4.35;;;;;;;;;;5074083;28;20036;-84
2022/04/07 11:44:58;;;;;;;10.25;3.03;;;;;;;;;;5074552;28;20044;-82
2022/04/07 11:47:49;;;;;;;16.15;3.78;;;;;;;;;;5074969;28;20391;-84
2022/04/07 11:50:38;;;;;;;9.45;2.70;;;;;;;;;;5081892;28;20048;-85
2022/04/07 11:53:24;;;;;;;13.88;4.15;;;;;;;;;;5080674;28;20057;-83
2022/04/07 11:56:16;;;;;;;12.93;4.47;;;;;;;;;;5074421;28;20044;-84
2022/04/07 11:59:06;;;;;;;13.23;4.40;;;;;;;;;;5081030;28;20045;-83
2022/04/07 12:01:52;;;;;;;12.38;3.22;;;;;;;;;;5081209;28;20052;-82
2022/04/07 12:04:40;;;;;;;20.25;4.28;;;;;;;;;;5066111;28;20045;-85
2022/04/07 12:07:25;;;;;;;14.90;4.43;;;;;;;;;;5080799;28;20416;-82
2022/04/07 12:10:11;;;;;;;18.15;6.30;;;;;;;;;;5074478;28;20049;-83
2022/04/07 12:12:56;;;;;;;18.23;3.80;;;;;;;;;;5080766;28;20049;-83
2022/04/07 12:15:41;;;;;;;27.38;5.20;;;;;;;;;;5075273;28;20048;-81
2022/04/07 12:18:29;;;;;;;12.73;3.60;;;;;;;;;;5085874;28;20044;-83
2022/04/07 12:21:15;;;;;;;13.40;4.18;;;;;;;;;;5086067;28;20040;-84
2022/04/07 12:24:09;;;;;;;29.90;8.63;;;;;;;;;;5086368;28;20048;-84
2022/04/07 12:26:59;;;;;;;19.00;5.63;;;;;;;;;;5068983;28;20041;-84
2022/04/07 12:29:47;;;;;;;23.40;7.50;;;;;;;;;;5080941;28;20472;-82
2022/04/07 12:32:43;;;;;;;25.63;9.98;;;;;;;;;;5081453;28;20036;-83
2022/04/07 12:35:44;;;;;;;23.38;6.45;;;;;;;;;;5081006;28;20481;-82
2022/04/07 12:38:29;;;;;;;19.63;8.27;;;;;;;;;;5080697;28;20040;-83
2022/04/07 12:41:16;;;;;;;19.77;6.15;;;;;;;;;;5079912;28;20037;-82
2022/04/07 12:44:01;;;;;;;20.55;7.97;;;;;;;;;;5073630;28;20037;-80
2022/04/07 12:46:51;;;;;;;19.02;5.88;;;;;;;;;;5073984;28;20052;-83
2022/04/07 12:49:40;;;;;;;18.30;4.60;;;;;;;;;;5074238;28;20485;-83
2022/04/07 12:52:38;;;;;;;29.02;6.38;;;;;;;;;;5074899;28;20048;-81
2022/04/07 12:55:38;;;;;;;21.52;6.80;;;;;;;;;;5063663;28;20036;-83
2022/04/07 12:58:27;;;;;;;12.48;3.53;;;;;;;;;;5079361;28;20041;-81
2022/04/07 13:01:22;;;;;;;17.20;6.15;;;;;;;;;;5079409;28;20048;-81
2022/04/07 13:04:10;;;;;;;17.98;4.85;;;;;;;;;;5084230;28;20048;-85
2022/04/07 13:06:56;;;;;;;19.27;5.72;;;;;;;;;;5086789;28;20044;-83
2022/04/07 13:09:42;;;;;;;38.45;15.27;;;;;;;;;;5082740;28;20492;-84
2022/04/07 13:12:27;;;;;;;18.80;7.70;;;;;;;;;;5083995;28;20396;-85
2022/04/07 13:15:13;;;;;;;13.52;4.72;;;;;;;;;;5077137;28;20044;-84
2022/04/07 13:17:58;;;;;;;28.02;7.63;;;;;;;;;;5083947;28;20053;-87
2022/04/07 13:20:44;;;;;;;14.52;5.05;;;;;;;;;;5084033;28;20048;-86
2022/04/07 13:23:30;;;;;;;16.83;5.47;;;;;;;;;;5076545;28;20044;-84
2022/04/07 13:26:15;;;;;;;19.77;6.03;;;;;;;;;;5069294;28;20052;-83
2022/04/07 13:29:00;;;;;;;17.95;7.30;;;;;;;;;;5077284;28;20392;-85
2022/04/07 13:31:45;;;;;;;16.15;5.03;;;;;;;;;;5068353;28;20041;-84
2022/04/07 13:34:34;;;;;;;15.55;4.15;;;;;;;;;;5077272;28;20052;-84
2022/04/07 13:37:28;;;;;;;11.60;3.47;;;;;;;;;;5068432;28;20048;-83
2022/04/07 13:40:15;;;;;;;15.18;3.60;;;;;;;;;;5083700;28;20037;-84
2022/04/07 13:43:01;;;;;;;20.90;4.30;;;;;;;;;;5076782;28;20477;-85
2022/04/07 13:45:46;;;;;;;10.80;3.28;;;;;;;;;;5081942;28;20036;-83
2022/04/07 13:48:32;;;;;;;8.52;3.20;;;;;;;;;;5076315;28;20389;-82
2022/04/07 13:51:17;;;;;;;12.48;3.88;;;;;;;;;;5082886;28;20048;-84
2022/04/07 13:54:03;;;;;;;17.38;3.63;;;;;;;;;;5076237;28;20041;-84
2022/04/07 13:56:48;;;;;;;16.98;5.18;;;;;;;;;;5075331;28;20040;-84
2022/04/07 13:59:37;;;;;;;9.95;3.22;;;;;;;;;;5067369;28;20477;-80
2022/04/07 14:02:23;;;;;;;10.93;4.05;;;;;;;;;;5076192;28;20048;-82
2022/04/07 14:05:09;;;;;;;12.10;3.00;;;;;;;;;;5074938;28;20045;-82
2022/04/07 14:07:54;;;;;;;13.60;4.30;;;;;;;;;;5083227;28;20036;-82
2022/04/07 14:10:41;;;;;;;12.77;3.38;;;;;;;;;;5076492;28;20044;-83
2022/04/07 14:13:29;;;;;;;14.15;4.38;;;;;;;;;;5082399;28;20048;-81
2022/04/07 14:16:17;;;;;;;9.40;3.38;;;;;;;;;;5075842;28;20049;-82
2022/04/07 14:19:08;;;;;;;11.43;3.63;;;;;;;;;;5058488;28;20045;-83
2022/04/07 14:21:54;;;;;;;12.80;3.75;;;;;;;;;;5059946;28;20045;-81
2022/04/07 14:24:44;;;;;;;10.95;4.35;;;;;;;;;;5061053;28;20052;-82
2022/04/07 14:27:30;;;;;;;13.65;3.13;;;;;;;;;;5053797;28;20048;-82
2022/04/07 14:30:15;;;;;;;44.75;22.35;;;;;;;;;;5051397;28;20052;-83
2022/04/07 14:33:06;;;;;;;14.40;5.65;;;;;;;;;;5054200;28;20037;-81
2022/04/07 14:35:51;;;;;;;9.25;3.17;;;;;;;;;;5053760;28;20041;-82
2022/04/07 14:38:37;;;;;;;11.55;3.85;;;;;;;;;;5060100;28;20041;-79
2022/04/07 14:41:23;;;;;;;13.82;4.25;;;;;;;;;;5061282;28;20401;-80
2022/04/07 14:44:08;;;;;;;12.00;3.65;;;;;;;;;;5055109;28;20033;-82
2022/04/07 14:46:54;;;;;;;13.27;5.72;;;;;;;;;;5061358;28;20053;-80
2022/04/07 14:49:40;;;;;;;23.45;6.80;;;;;;;;;;5060880;28;20493;-81
2022/04/07 14:52:25;;;;;;;15.88;5.35;;;;;;;;;;5055059;28;20032;-82
2022/04/07 14:55:11;;;;;;;15.98;5.00;;;;;;;;;;5058737;28;20052;-82
2022/04/07 14:57:57;;;;;;;13.50;3.53;;;;;;;;;;5053038;28;20045;-83
2022/04/07 15:00:43;;;;;;;15.93;5.68;;;;;;;;;;5053146;28;20049;-84
2022/04/07 15:03:29;;;;;;;17.70;5.53;;;;;;;;;;5061980;28;20045;-82
2022/04/07 15:06:14;;;;;;;15.18;5.43;;;;;;;;;;5061541;28;20044;-80
2022/04/07 15:09:00;;;;;;;15.77;7.28;;;;;;;;;;5059474;28;20501;-79
2022/04/07 15:11:46;;;;;;;16.42;6.63;;;;;;;;;;5045860;28;20045;-79
2022/04/07 15:14:39;;;;;;;31.50;10.68;;;;;;;;;;5061748;28;20482;-80
2022/04/07 15:17:24;;;;;;;20.90;4.55;;;;;;;;;;5054125;28;20048;-81
2022/04/07 15:20:10;;;;;;;19.45;8.13;;;;;;;;;;5073300;28;20045;-81
2022/04/07 15:22:56;;;;;;;14.73;6.50;;;;;;;;;;5082303;28;20421;-80
2022/04/07 15:25:41;;;;;;;15.32;5.90;;;;;;;;;;5081506;28;20052;-80
2022/04/07 15:28:27;;;;;;;15.15;5.90;;;;;;;;;;5075509;28;20036;-82
2022/04/07 15:31:12;;;;;;;20.80;5.43;;;;;;;;;;5084090;28;20052;-79
2022/04/07 15:33:58;;;;;;;15.70;4.63;;;;;;;;;;5078341;28;20036;-80
2022/04/07 15:36:44;;;;;;;13.27;5.10;;;;;;;;;;5084964;28;20040;-81
2022/04/07 15:39:29;;;;;;;10.65;4.30;;;;;;;;;;5070231;28;20394;-82
2022/04/07 15:42:15;;;;;;;13.02;5.43;;;;;;;;;;5078280;28;20032;-81
2022/04/07 15:45:00;;;;;;;12.95;5.53;;;;;;;;;;5083883;28;20052;-81
2022/04/07 15:47:46;;;;;;;17.88;6.32;;;;;;;;;;5083943;28;20045;-83
2022/04/07 15:50:32;;;;;;;17.40;5.93;;;;;;;;;;5076948;28;20036;-81
2022/04/07 15:53:17;;;;;;;12.30;4.90;;;;;;;;;;5084430;28;20049;-82
2022/04/07 15:56:03;;;;;;;12.82;3.78;;;;;;;;;;5078472;28;20040;-80
2022/04/07 15:58:49;;;;;;;16.08;4.18;;;;;;;;;;5078527;28;20044;-81
2022/04/07 16:01:36;;;;;;;14.15;5.47;;;;;;;;;;5078011;28;20036;-82
2022/04/07 16:04:22;;;;;;;14.68;5.60;;;;;;;;;;5084340;28;20044;-83
2022/04/07 16:07:07;;;;;;;12.18;5.25;;;;;;;;;;5076360;28;20045;-82
2022/04/07 16:09:52;;;;;;;16.58;6.70;;;;;;;;;;5083656;28;20392;-81
2022/04/07 16:12:40;;;;;;;23.17;10.27;;;;;;;;;;5082379;28;20048;-78
2022/04/07 16:15:25;;;;;;;171.75;80.25;;;;;;;;;;5082183;28;20052;-78
2022/04/07 16:18:10;;;;;;;50.13;27.17;;;;;;;;;;5080247;28;20389;-82
2022/04/07 16:20:56;;;;;;;33.78;15.98;;;;;;;;;;5080772;28;20049;-81
2022/04/07 16:23:41;;;;;;;127.50;51.80;;;;;;;;;;5080803;28;20040;-81
2022/04/07 16:26:28;;;;;;;69.30;34.15;;;;;;;;;;5080651;28;20048;-81